Time;durP1;ratioP1;P1;durP2;ratioP2;P2;SDS_P1;SDS_P2;PMS_P1;PMS_P2;Temp;Humidity;BMP_temperature;BMP_pressure;BME280_temperature;BME280_humidity;BME280_pressure;Samples;Min_cycle;Max_cycle;Signal;HPM_P1;HPM_P2
2021/05/25 00:00:13;;;;;;;1.17;0.80;;;8.40;99.80;;;;;;5097007;28;20475;-42
2021/05/25 00:02:39;;;;;;;2.90;1.13;;;8.30;99.90;;;;;;5096998;28;20745;-42
2021/05/25 00:05:06;;;;;;;4.90;1.30;;;8.30;99.90;;;;;;5096692;28;20402;-42
2021/05/25 00:07:31;;;;;;;1.93;1.33;;;8.20;99.90;;;;;;5097032;28;20532;-43
2021/05/25 00:09:57;;;;;;;5.23;1.53;;;8.10;99.90;;;;;;5096428;28;20489;-43
2021/05/25 00:12:23;;;;;;;3.07;1.00;;;8.10;99.90;;;;;;5095549;28;20494;-41
2021/05/25 00:14:49;;;;;;;2.20;1.10;;;8.00;99.90;;;;;;5096811;28;20566;-42
2021/05/25 00:17:14;;;;;;;1.83;1.27;;;8.00;99.90;;;;;;5100445;28;20175;-43
2021/05/25 00:19:40;;;;;;;1.80;1.20;;;8.00;99.90;;;;;;5099802;28;20551;-42
2021/05/25 00:22:06;;;;;;;3.10;1.30;;;7.90;99.90;;;;;;5100606;28;20578;-43
2021/05/25 00:24:33;;;;;;;1.40;0.93;;;7.90;99.90;;;;;;5100200;28;20456;-43
2021/05/25 00:26:59;;;;;;;3.13;1.20;;;7.90;99.90;;;;;;5100834;28;20175;-43
2021/05/25 00:29:24;;;;;;;1.90;1.20;;;7.80;99.90;;;;;;5099610;28;20407;-41
2021/05/25 00:31:50;;;;;;;2.33;0.93;;;7.70;99.90;;;;;;5100593;28;20173;-43
2021/05/25 00:34:16;;;;;;;1.70;0.90;;;7.70;99.90;;;;;;5099859;28;20200;-42
2021/05/25 00:36:42;;;;;;;1.83;1.10;;;7.70;99.90;;;;;;5100195;28;20804;-43
2021/05/25 00:39:08;;;;;;;2.30;1.57;;;7.60;99.90;;;;;;5100086;28;20277;-42
2021/05/25 00:41:35;;;;;;;1.43;1.10;;;7.60;99.90;;;;;;5100204;28;20410;-42
2021/05/25 00:44:01;;;;;;;2.10;1.07;;;7.70;99.90;;;;;;5099553;28;20210;-42
2021/05/25 00:46:27;;;;;;;4.03;1.20;;;7.60;99.90;;;;;;5098953;28;20442;-42
2021/05/25 00:48:53;;;;;;;1.43;1.00;;;7.70;99.90;;;;;;5100309;28;20426;-43
2021/05/25 00:51:19;;;;;;;1.30;1.20;;;7.70;99.90;;;;;;5099396;28;20563;-42
2021/05/25 00:53:44;;;;;;;1.70;1.30;;;7.70;99.90;;;;;;5099354;28;20606;-43
2021/05/25 00:56:11;;;;;;;2.67;1.00;;;7.70;99.90;;;;;;5100101;28;20173;-43
2021/05/25 00:58:37;;;;;;;2.00;1.13;;;7.80;99.90;;;;;;5099931;28;20208;-41
2021/05/25 01:01:03;;;;;;;2.33;1.10;;;7.80;99.90;;;;;;5099571;28;20573;-42
2021/05/25 01:03:29;;;;;;;2.30;1.40;;;7.80;99.90;;;;;;5098918;28;20442;-42
2021/05/25 01:05:57;;;;;;;1.73;1.20;;;7.80;99.90;;;;;;5098499;28;20763;-43
2021/05/25 01:08:23;;;;;;;6.80;1.30;;;7.80;99.90;;;;;;5096537;28;20188;-43
2021/05/25 01:11:10;;;;;;;4.37;1.63;;;7.80;99.90;;;;;;5098533;28;20811;-43
2021/05/25 01:13:43;;;;;;;1.93;1.10;;;7.90;99.90;;;;;;5077505;28;20612;-41
2021/05/25 01:16:09;;;;;;;2.73;1.13;;;7.90;99.70;;;;;;5078729;28;20491;-44
2021/05/25 01:18:36;;;;;;;3.83;1.47;;;7.90;99.90;;;;;;5078286;28;20888;-43
2021/05/25 01:21:02;;;;;;;2.97;1.10;;;7.80;99.80;;;;;;5078712;28;20511;-43
2021/05/25 01:23:28;;;;;;;3.20;1.57;;;7.80;99.90;;;;;;5097158;28;20458;-41
2021/05/25 01:25:54;;;;;;;3.73;1.30;;;7.70;99.90;;;;;;5098588;28;20411;-42
2021/05/25 01:28:21;;;;;;;3.90;1.17;;;7.70;99.90;;;;;;5098932;28;20445;-43
2021/05/25 01:30:50;;;;;;;1.53;1.00;;;7.70;99.90;;;;;;5098397;28;20430;-43
2021/05/25 01:33:17;;;;;;;1.83;1.10;;;7.70;99.90;;;;;;5098266;28;20488;-42
2021/05/25 01:35:43;;;;;;;2.90;1.00;;;7.60;99.90;;;;;;5098859;28;20421;-42
2021/05/25 01:38:10;;;;;;;2.67;1.40;;;7.60;99.90;;;;;;5098383;28;20423;-42
2021/05/25 01:40:36;;;;;;;3.63;1.47;;;7.60;99.90;;;;;;5097886;28;20410;-42
2021/05/25 01:43:03;;;;;;;5.50;1.60;;;7.50;99.90;;;;;;5097014;28;20863;-43
2021/05/25 01:45:30;;;;;;;2.30;1.40;;;7.50;99.90;;;;;;5097039;28;20415;-41
2021/05/25 01:48:16;;;;;;;4.90;1.50;;;7.50;99.90;;;;;;5098013;28;20430;-41
2021/05/25 01:50:42;;;;;;;2.80;1.23;;;7.40;99.90;;;;;;5077778;28;20694;-41
2021/05/25 01:53:19;;;;;;;2.77;1.60;;;7.40;99.90;;;;;;5075735;28;20473;-43
2021/05/25 01:55:45;;;;;;;2.50;1.17;;;7.40;99.60;;;;;;5078087;28;20435;-42
2021/05/25 01:58:14;;;;;;;3.00;1.23;;;7.40;99.60;;;;;;5077879;28;20413;-42
2021/05/25 02:00:48;;;;;;;3.43;1.57;;;7.40;99.60;;;;;;5093563;28;20442;-43
2021/05/25 02:03:14;;;;;;;5.50;1.33;;;7.40;99.50;;;;;;5098150;28;20476;-43
2021/05/25 02:05:40;;;;;;;2.10;0.90;;;7.30;99.40;;;;;;5097101;28;20434;-43
2021/05/25 02:08:07;;;;;;;2.23;1.30;;;7.40;99.30;;;;;;5097605;28;20184;-42
2021/05/25 02:10:35;;;;;;;1.40;1.10;;;7.40;99.10;;;;;;5096877;28;20468;-43
2021/05/25 02:13:08;;;;;;;6.07;1.10;;;7.40;99.00;;;;;;5097613;28;20481;-42
2021/05/25 02:15:35;;;;;;;2.83;1.13;;;7.40;98.90;;;;;;5098087;28;20446;-43
2021/05/25 02:18:06;;;;;;;3.33;1.33;;;7.40;99.00;;;;;;5096913;28;20517;-41
2021/05/25 02:20:32;;;;;;;5.03;1.07;;;7.40;99.00;;;;;;5097462;28;20469;-43
2021/05/25 02:22:58;;;;;;;4.07;1.43;;;7.40;98.80;;;;;;5096832;28;20426;-42
2021/05/25 02:25:23;;;;;;;1.30;1.07;;;7.40;98.60;;;;;;5097484;28;20430;-43
2021/05/25 02:27:49;;;;;;;2.13;1.23;;;7.40;98.60;;;;;;5097626;28;20180;-42
2021/05/25 02:30:15;;;;;;;1.60;1.20;;;7.40;98.40;;;;;;5097333;28;20185;-43
2021/05/25 02:32:41;;;;;;;4.40;1.33;;;7.40;98.50;;;;;;5097591;28;20302;-42
2021/05/25 02:35:07;;;;;;;2.57;1.27;;;7.30;98.60;;;;;;5097385;28;20592;-42
2021/05/25 02:37:33;;;;;;;1.97;1.13;;;7.30;98.70;;;;;;5096995;28;20418;-43
2021/05/25 02:40:00;;;;;;;1.73;1.20;;;7.30;98.70;;;;;;5096851;28;20426;-43
2021/05/25 02:42:26;;;;;;;2.83;1.30;;;7.20;98.70;;;;;;5096525;28;20832;-42
2021/05/25 02:44:53;;;;;;;3.63;1.20;;;7.10;98.70;;;;;;5097371;28;20423;-42
2021/05/25 02:47:18;;;;;;;3.77;1.33;;;7.10;98.60;;;;;;5097004;28;20185;-43
2021/05/25 02:49:46;;;;;;;5.13;1.33;;;7.10;98.40;;;;;;5096759;28;20671;-42
2021/05/25 02:52:12;;;;;;;4.50;1.10;;;7.20;98.30;;;;;;5096753;28;20168;-43
2021/05/25 02:54:39;;;;;;;4.40;1.53;;;7.30;98.00;;;;;;5096107;28;20492;-42
2021/05/25 02:57:05;;;;;;;2.23;1.47;;;7.30;97.90;;;;;;5073923;28;20434;-42
2021/05/25 02:59:31;;;;;;;2.70;1.00;;;7.30;97.90;;;;;;5076861;28;20466;-42
2021/05/25 03:01:56;;;;;;;2.90;0.80;;;7.30;97.80;;;;;;5092545;28;20737;-42
2021/05/25 03:04:22;;;;;;;2.50;1.20;;;7.30;97.80;;;;;;5076970;28;20185;-42
2021/05/25 03:06:48;;;;;;;3.97;1.57;;;7.30;97.70;;;;;;5092196;28;20207;-42
2021/05/25 03:09:13;;;;;;;3.60;1.13;;;7.30;97.90;;;;;;5096280;28;20187;-42
2021/05/25 03:11:39;;;;;;;3.67;1.20;;;7.20;98.00;;;;;;5094332;28;20231;-40
2021/05/25 03:14:05;;;;;;;1.50;0.90;;;7.10;98.10;;;;;;5096123;28;20459;-42
2021/05/25 03:16:30;;;;;;;4.03;1.70;;;7.20;98.10;;;;;;5095930;28;20241;-42
2021/05/25 03:18:56;;;;;;;2.03;0.80;;;7.20;98.10;;;;;;5095598;28;20165;-42
2021/05/25 03:21:22;;;;;;;3.43;0.90;;;7.20;98.20;;;;;;5097435;28;20188;-42
2021/05/25 03:23:47;;;;;;;3.03;0.80;;;7.20;98.30;;;;;;5095456;28;20635;-42
2021/05/25 03:26:13;;;;;;;5.00;1.27;;;7.10;98.40;;;;;;5095389;28;20208;-41
2021/05/25 03:28:39;;;;;;;3.17;1.20;;;7.10;98.50;;;;;;5094824;28;20446;-42
2021/05/25 03:31:05;;;;;;;3.37;1.20;;;7.10;98.80;;;;;;5095016;28;20454;-42
2021/05/25 03:33:31;;;;;;;4.70;1.53;;;7.10;98.90;;;;;;5094815;28;20457;-42
2021/05/25 03:35:57;;;;;;;3.33;1.53;;;7.10;99.00;;;;;;5094908;28;20434;-42
2021/05/25 03:38:22;;;;;;;2.87;0.90;;;7.00;99.20;;;;;;5095440;28;20414;-42
2021/05/25 03:40:48;;;;;;;2.73;1.10;;;6.80;99.50;;;;;;5095958;28;20451;-41
2021/05/25 03:43:14;;;;;;;2.30;1.00;;;6.90;99.60;;;;;;5095707;28;20187;-42
2021/05/25 03:45:39;;;;;;;3.40;1.50;;;6.90;99.60;;;;;;5095175;28;20187;-41
2021/05/25 03:48:06;;;;;;;3.33;1.50;;;6.90;99.50;;;;;;5095416;28;20184;-40
2021/05/25 03:50:31;;;;;;;1.30;0.90;;;6.80;99.50;;;;;;5098930;28;20192;-42
2021/05/25 03:52:57;;;;;;;2.50;1.00;;;6.90;99.20;;;;;;5099880;28;20458;-42
2021/05/25 04:00:39;;;;;;;2.33;1.27;;;7.10;99.10;;;;;;5100115;28;20478;-41
2021/05/25 04:03:04;;;;;;;2.13;1.10;;;7.20;99.10;;;;;;5100343;28;20418;-42
2021/05/25 04:05:30;;;;;;;1.80;1.10;;;7.20;99.00;;;;;;5099969;28;20429;-42
2021/05/25 04:07:56;;;;;;;2.37;0.90;;;7.20;99.10;;;;;;5098270;28;20249;-42
2021/05/25 04:10:22;;;;;;;6.43;1.00;;;7.20;98.80;;;;;;5099757;28;20458;-42
2021/05/25 04:12:47;;;;;;;3.03;0.80;;;7.20;98.80;;;;;;5097706;28;20314;-41
2021/05/25 04:15:13;;;;;;;2.63;0.80;;;7.20;98.80;;;;;;5098888;28;20263;-41
2021/05/25 04:17:41;;;;;;;3.33;1.07;;;7.20;98.50;;;;;;5098235;28;20180;-41
2021/05/25 04:20:09;;;;;;;1.63;0.97;;;7.20;98.50;;;;;;5098307;28;20426;-41
2021/05/25 04:22:35;;;;;;;2.90;1.00;;;7.20;98.40;;;;;;5098594;28;20693;-39
2021/05/25 04:25:00;;;;;;;3.70;0.90;;;7.20;98.40;;;;;;5097845;28;20422;-42
2021/05/25 04:27:26;;;;;;;2.67;0.63;;;7.20;98.30;;;;;;5098613;28;20188;-42
2021/05/25 04:29:51;;;;;;;1.53;0.80;;;7.20;98.20;;;;;;5099429;28;20184;-41
2021/05/25 04:32:17;;;;;;;1.03;0.50;;;7.30;98.30;;;;;;5098898;28;20203;-42
2021/05/25 04:34:42;;;;;;;1.10;0.80;;;7.30;97.90;;;;;;5099361;28;20177;-41
2021/05/25 04:37:08;;;;;;;1.40;0.70;;;7.30;97.80;;;;;;5098318;28;20172;-42
2021/05/25 04:39:34;;;;;;;1.37;0.60;;;7.30;97.50;;;;;;5097988;28;20458;-43
2021/05/25 04:41:59;;;;;;;2.73;0.80;;;7.40;97.50;;;;;;5097721;28;20274;-42
2021/05/25 04:44:25;;;;;;;1.67;1.00;;;7.30;97.50;;;;;;5098267;28;20193;-41
2021/05/25 04:46:50;;;;;;;1.57;0.70;;;7.30;97.50;;;;;;5097658;28;20529;-42
2021/05/25 04:49:16;;;;;;;2.30;0.70;;;7.50;97.20;;;;;;5098340;28;20180;-42
2021/05/25 04:51:42;;;;;;;1.93;0.80;;;7.50;97.10;;;;;;5097618;28;20482;-44
2021/05/25 04:54:07;;;;;;;2.90;1.00;;;7.50;97.00;;;;;;5098404;28;20458;-42
2021/05/25 04:56:35;;;;;;;1.23;0.70;;;7.60;96.90;;;;;;5097368;28;20172;-42
2021/05/25 04:59:00;;;;;;;1.87;0.80;;;7.60;96.70;;;;;;5096411;28;20356;-41
2021/05/25 05:01:27;;;;;;;1.40;0.80;;;7.60;96.50;;;;;;5095711;28;20544;-41
2021/05/25 05:03:54;;;;;;;2.20;0.70;;;7.50;96.70;;;;;;5096556;28;20169;-42
2021/05/25 05:06:20;;;;;;;2.23;0.73;;;7.60;96.70;;;;;;5095439;28;20446;-42
2021/05/25 05:08:45;;;;;;;1.00;0.60;;;7.50;96.70;;;;;;5096011;28;20491;-42
2021/05/25 05:11:11;;;;;;;1.17;0.63;;;7.60;96.70;;;;;;5097359;28;20188;-42
2021/05/25 05:13:38;;;;;;;2.40;0.70;;;7.60;96.70;;;;;;5098699;28;20464;-41
2021/05/25 05:16:04;;;;;;;3.03;0.93;;;7.60;96.70;;;;;;5098703;28;20430;-41
2021/05/25 05:18:29;;;;;;;1.53;0.80;;;7.70;96.70;;;;;;5097952;28;20426;-39
2021/05/25 05:20:55;;;;;;;2.47;0.90;;;7.90;96.50;;;;;;5097438;28;20430;-42
2021/05/25 05:23:20;;;;;;;3.37;1.00;;;7.90;96.50;;;;;;5096974;28;20172;-42
2021/05/25 05:25:46;;;;;;;1.67;0.83;;;8.00;96.10;;;;;;5097211;28;20222;-42
2021/05/25 05:28:13;;;;;;;1.93;0.90;;;8.10;96.20;;;;;;5095517;28;20279;-39
2021/05/25 05:30:38;;;;;;;3.07;0.80;;;8.10;95.30;;;;;;5094629;28;20264;-42
2021/05/25 05:33:06;;;;;;;3.13;0.87;;;8.20;95.70;;;;;;5096550;28;20602;-42
2021/05/25 05:35:32;;;;;;;2.70;1.70;;;8.40;95.50;;;;;;5096386;28;20581;-41
2021/05/25 05:37:58;;;;;;;1.33;1.03;;;8.50;94.80;;;;;;5096803;28;20518;-42
2021/05/25 05:40:24;;;;;;;3.20;0.90;;;8.70;94.70;;;;;;5097491;28;20422;-42
2021/05/25 05:42:49;;;;;;;5.20;1.10;;;8.70;94.30;;;;;;5097771;28;20253;-41
2021/05/25 05:45:17;;;;;;;3.70;1.10;;;8.60;94.10;;;;;;5098042;28;20473;-42
2021/05/25 05:47:43;;;;;;;1.10;0.67;;;8.70;94.10;;;;;;5079828;28;20172;-42
2021/05/25 05:50:11;;;;;;;1.20;0.80;;;8.50;93.60;;;;;;5097834;28;20506;-42
2021/05/25 05:52:41;;;;;;;3.63;0.77;;;8.40;93.40;;;;;;5097835;28;20207;-42
2021/05/25 05:55:07;;;;;;;2.33;0.97;;;8.60;93.50;;;;;;5097374;28;20494;-42
2021/05/25 05:57:33;;;;;;;0.90;0.70;;;8.60;93.20;;;;;;5096700;28;20696;-43
2021/05/25 05:59:59;;;;;;;3.80;1.07;;;8.90;93.10;;;;;;5096232;28;20455;-41
2021/05/25 06:02:25;;;;;;;1.13;0.80;;;8.90;92.70;;;;;;5096732;28;20511;-40
2021/05/25 06:04:51;;;;;;;2.53;1.00;;;9.00;92.80;;;;;;5097486;28;20176;-42
2021/05/25 06:07:17;;;;;;;1.50;0.90;;;9.00;92.90;;;;;;5097291;28;20903;-40
2021/05/25 06:09:43;;;;;;;1.97;0.83;;;9.20;92.60;;;;;;5096998;28;20271;-42
2021/05/25 06:12:09;;;;;;;1.80;0.87;;;9.00;91.90;;;;;;5096897;28;20781;-40
2021/05/25 06:14:35;;;;;;;1.23;0.80;;;8.90;92.00;;;;;;5096267;28;20572;-38
2021/05/25 06:17:01;;;;;;;2.00;0.90;;;9.10;92.50;;;;;;5097441;28;20641;-40
2021/05/25 06:19:27;;;;;;;2.10;1.00;;;9.20;91.90;;;;;;5097349;28;20521;-39
2021/05/25 06:21:52;;;;;;;4.93;1.20;;;9.30;92.00;;;;;;5096874;28;20856;-42
2021/05/25 06:24:18;;;;;;;1.83;0.70;;;9.20;91.80;;;;;;5095213;28;20503;-40
2021/05/25 06:26:44;;;;;;;2.10;0.70;;;9.20;91.90;;;;;;5096248;28;20176;-40
2021/05/25 06:29:09;;;;;;;1.47;0.90;;;9.30;91.50;;;;;;5095986;28;20445;-42
2021/05/25 06:31:35;;;;;;;1.20;0.70;;;9.50;91.30;;;;;;5095943;28;20524;-40
2021/05/25 06:34:01;;;;;;;1.43;0.77;;;9.80;90.90;;;;;;5095358;28;20200;-41
2021/05/25 06:36:26;;;;;;;1.63;0.70;;;9.70;90.80;;;;;;5094610;28;20227;-40
2021/05/25 06:38:52;;;;;;;1.37;0.83;;;9.90;91.10;;;;;;5094611;28;20160;-39
2021/05/25 06:41:17;;;;;;;1.70;0.87;;;9.90;91.00;;;;;;5094214;28;20220;-40
2021/05/25 06:43:43;;;;;;;1.73;0.70;;;9.90;90.60;;;;;;5096106;28;20244;-40
2021/05/25 06:46:09;;;;;;;1.90;0.80;;;10.00;90.20;;;;;;5096035;28;20275;-40
2021/05/25 06:48:34;;;;;;;3.77;1.10;;;10.00;89.20;;;;;;5096240;28;20517;-38
2021/05/25 06:51:04;;;;;;;2.07;1.13;;;9.80;90.40;;;;;;5096942;28;20188;-41
2021/05/25 06:53:30;;;;;;;4.10;0.90;;;9.70;90.80;;;;;;5095151;28;20547;-42
2021/05/25 06:55:56;;;;;;;2.67;1.07;;;9.90;90.60;;;;;;5095634;28;20458;-42
2021/05/25 06:58:21;;;;;;;2.20;1.10;;;9.90;90.30;;;;;;5095426;28;20504;-41
2021/05/25 07:00:47;;;;;;;4.90;0.87;;;10.00;89.80;;;;;;5094541;28;20791;-40
2021/05/25 07:03:13;;;;;;;2.70;0.90;;;10.40;88.70;;;;;;5096330;28;20168;-42
2021/05/25 07:05:39;;;;;;;2.70;0.80;;;10.50;87.50;;;;;;5096847;28;20173;-42
2021/05/25 07:08:04;;;;;;;2.83;1.30;;;10.60;87.40;;;;;;5096273;28;20172;-41
2021/05/25 07:10:30;;;;;;;2.40;0.77;;;10.40;87.30;;;;;;5094982;28;20512;-42
2021/05/25 07:12:56;;;;;;;2.20;0.80;;;10.80;87.20;;;;;;5093938;28;20268;-41
2021/05/25 07:15:22;;;;;;;1.90;0.57;;;10.50;85.90;;;;;;5094360;28;20359;-40
2021/05/25 07:17:56;;;;;;;2.67;0.77;;;10.50;85.40;;;;;;5094125;28;20528;-41
2021/05/25 07:20:25;;;;;;;1.33;0.87;;;10.40;85.60;;;;;;5094462;28;20176;-41
2021/05/25 07:22:53;;;;;;;2.43;0.80;;;10.70;85.90;;;;;;5095184;28;20524;-39
2021/05/25 07:25:20;;;;;;;2.47;0.80;;;10.90;85.10;;;;;;5094804;28;20434;-41
2021/05/25 07:27:46;;;;;;;1.53;0.83;;;10.60;83.20;;;;;;5096594;28;20418;-41
2021/05/25 07:30:13;;;;;;;3.17;1.30;;;10.70;83.00;;;;;;5095729;28;20733;-41
2021/05/25 07:32:38;;;;;;;3.93;0.97;;;10.40;83.50;;;;;;5095649;28;20454;-42
2021/05/25 07:35:05;;;;;;;2.30;1.17;;;10.40;84.10;;;;;;5095976;28;20515;-41
2021/05/25 07:37:31;;;;;;;3.47;1.20;;;10.80;83.80;;;;;;5095474;28;20466;-41
2021/05/25 07:39:57;;;;;;;3.47;1.10;;;10.60;82.70;;;;;;5095575;28;20433;-42
2021/05/25 07:42:22;;;;;;;4.77;0.87;;;10.80;83.50;;;;;;5094940;28;20191;-42
2021/05/25 07:44:48;;;;;;;3.00;0.73;;;10.80;82.50;;;;;;5093820;28;20169;-42
2021/05/25 07:47:14;;;;;;;3.03;1.00;;;11.20;82.20;;;;;;5093165;28;20173;-42
2021/05/25 07:49:39;;;;;;;1.93;0.90;;;11.20;81.60;;;;;;5093542;28;20242;-41
2021/05/25 07:52:05;;;;;;;1.63;0.97;;;10.90;80.40;;;;;;5093617;28;20172;-42
2021/05/25 07:54:31;;;;;;;3.60;0.80;;;10.60;79.80;;;;;;5092801;28;20607;-40
2021/05/25 07:56:56;;;;;;;4.33;0.90;;;10.70;79.40;;;;;;5091625;28;20498;-42
2021/05/25 07:59:22;;;;;;;6.70;0.97;;;10.50;79.80;;;;;;5093429;28;20233;-40
2021/05/25 08:01:47;;;;;;;1.80;1.00;;;10.80;79.10;;;;;;5095487;28;20183;-42
2021/05/25 08:04:13;;;;;;;3.30;1.10;;;11.10;78.40;;;;;;5094621;28;20234;-41
2021/05/25 08:06:39;;;;;;;2.07;0.80;;;11.60;77.00;;;;;;5095523;28;20652;-41
2021/05/25 08:09:05;;;;;;;1.73;0.80;;;11.10;75.90;;;;;;5094601;28;20578;-39
2021/05/25 08:11:31;;;;;;;2.40;0.80;;;11.10;75.90;;;;;;5095300;28;20484;-39
2021/05/25 08:13:57;;;;;;;2.57;0.73;;;11.10;76.30;;;;;;5094982;28;20469;-41
2021/05/25 08:16:27;;;;;;;3.77;0.90;;;11.10;76.00;;;;;;5095348;28;20176;-39
2021/05/25 08:21:19;;;;;;;2.70;0.70;;;11.20;75.30;;;;;;5094348;28;20422;-42
2021/05/25 08:23:45;;;;;;;3.60;1.00;;;11.40;75.90;;;;;;5094443;28;20424;-39
2021/05/25 08:26:11;;;;;;;4.87;1.00;;;11.60;75.30;;;;;;5094293;28;20201;-42
2021/05/25 08:28:37;;;;;;;1.80;0.93;;;11.50;75.00;;;;;;5093802;28;20165;-43
2021/05/25 08:31:03;;;;;;;3.20;0.70;;;11.70;75.20;;;;;;5094105;28;20438;-42
2021/05/25 08:33:29;;;;;;;2.70;0.80;;;11.40;75.70;;;;;;5093437;28;20193;-41
2021/05/25 08:35:55;;;;;;;4.07;0.90;;;11.20;77.00;;;;;;5094875;28;20425;-39
2021/05/25 08:38:22;;;;;;;2.50;0.93;;;11.40;77.20;;;;;;5098026;28;20374;-42
2021/05/25 08:40:52;;;;;;;4.50;0.80;;;11.90;76.90;;;;;;5099136;28;20251;-42
2021/05/25 08:43:18;;;;;;;3.93;1.10;;;11.80;75.10;;;;;;5099325;28;20406;-42
2021/05/25 08:45:45;;;;;;;1.40;0.60;;;12.00;76.70;;;;;;5098199;28;20437;-41
2021/05/25 08:48:11;;;;;;;3.20;1.00;;;11.90;75.90;;;;;;5098416;28;20500;-40
2021/05/25 08:50:37;;;;;;;1.60;0.63;;;12.20;75.90;;;;;;5098502;28;20529;-42
2021/05/25 08:53:04;;;;;;;1.77;0.90;;;12.20;75.00;;;;;;5099148;28;20454;-39
2021/05/25 08:55:31;;;;;;;3.00;0.80;;;12.30;75.80;;;;;;5080004;28;20430;-41
2021/05/25 08:57:57;;;;;;;1.67;0.70;;;11.90;75.40;;;;;;5096615;28;20406;-40
2021/05/25 09:00:25;;;;;;;2.60;0.80;;;11.80;74.80;;;;;;5097497;28;20530;-41
2021/05/25 09:02:52;;;;;;;3.13;0.87;;;11.70;74.40;;;;;;5097542;28;20777;-40
2021/05/25 09:05:19;;;;;;;1.60;0.77;;;12.00;75.70;;;;;;5097521;28;20888;-42
2021/05/25 09:07:50;;;;;;;2.80;0.70;;;12.70;74.30;;;;;;5097294;28;20841;-40
2021/05/25 09:10:22;;;;;;;2.10;0.73;;;12.40;71.50;;;;;;5096911;28;20438;-41
2021/05/25 09:12:52;;;;;;;3.20;0.93;;;12.20;72.80;;;;;;5097155;28;20554;-42
2021/05/25 09:15:33;;;;;;;2.20;1.17;;;12.70;74.00;;;;;;5096018;28;20461;-41
2021/05/25 09:18:14;;;;;;;3.80;0.70;;;13.10;74.10;;;;;;5095511;28;20410;-41
2021/05/25 09:20:43;;;;;;;1.20;0.70;;;12.90;71.40;;;;;;5097060;28;20491;-40
2021/05/25 09:23:11;;;;;;;2.87;0.77;;;12.60;70.40;;;;;;5096662;28;20493;-41
2021/05/25 09:25:52;;;;;;;2.90;1.27;;;12.40;71.40;;;;;;5097088;28;20855;-41
2021/05/25 09:28:19;;;;;;;1.67;0.90;;;12.60;73.00;;;;;;5096663;28;20417;-42
2021/05/25 09:30:47;;;;;;;4.00;1.00;;;12.30;71.10;;;;;;5096458;28;20433;-40
2021/05/25 09:33:14;;;;;;;2.03;1.03;;;11.60;71.50;;;;;;5096120;28;20458;-41
2021/05/25 09:35:41;;;;;;;3.70;1.20;;;11.30;73.40;;;;;;5097278;28;20654;-40
2021/05/25 09:38:08;;;;;;;4.47;1.13;;;11.30;75.90;;;;;;5097074;28;20409;-40
2021/05/25 09:40:35;;;;;;;4.77;1.10;;;11.70;74.70;;;;;;5097794;28;20647;-40
2021/05/25 09:43:14;;;;;;;3.30;0.67;;;11.50;74.30;;;;;;5097384;28;20430;-41
2021/05/25 09:45:54;;;;;;;5.00;1.10;;;12.00;72.00;;;;;;5076672;28;20426;-41
2021/05/25 09:48:28;;;;;;;3.63;1.27;;;12.60;71.30;;;;;;5076539;28;20434;-42
2021/05/25 09:50:54;;;;;;;2.07;1.13;;;12.50;71.00;;;;;;5076862;28;20693;-40
2021/05/25 09:53:23;;;;;;;2.27;1.10;;;12.20;72.20;;;;;;5076001;28;20739;-42
2021/05/25 09:56:06;;;;;;;2.20;1.70;;;11.80;74.50;;;;;;5076481;28;20519;-41
2021/05/25 09:58:32;;;;;;;3.33;0.90;;;11.80;71.80;;;;;;5076329;28;20518;-40
2021/05/25 10:00:58;;;;;;;1.83;1.00;;;12.80;71.00;;;;;;5096363;28;20537;-39
2021/05/25 10:03:26;;;;;;;2.10;0.90;;;12.90;70.60;;;;;;5097163;28;20268;-42
2021/05/25 10:05:54;;;;;;;3.00;1.00;;;13.30;70.50;;;;;;5097273;28;20426;-42
2021/05/25 10:08:23;;;;;;;2.80;0.90;;;12.40;70.90;;;;;;5096224;28;20437;-40
2021/05/25 10:10:57;;;;;;;2.50;1.13;;;12.00;72.40;;;;;;5096067;28;20441;-40
2021/05/25 10:13:24;;;;;;;2.50;0.97;;;12.70;73.70;;;;;;5096792;28;20880;-41
2021/05/25 10:15:51;;;;;;;1.27;0.70;;;13.40;70.70;;;;;;5096048;28;20474;-41
2021/05/25 10:20:45;;;;;;;4.70;0.90;;;14.60;61.80;;;;;;5096286;28;20422;-41
2021/05/25 10:23:11;;;;;;;5.03;0.90;;;14.40;61.70;;;;;;5096506;28;20406;-42
2021/05/25 10:25:39;;;;;;;3.27;1.10;;;14.30;60.00;;;;;;5096417;28;20435;-41
2021/05/25 10:28:10;;;;;;;3.07;1.10;;;13.90;59.90;;;;;;5096732;28;20462;-41
2021/05/25 10:30:37;;;;;;;1.73;0.70;;;13.40;62.90;;;;;;5096372;28;20461;-41
2021/05/25 10:33:06;;;;;;;2.00;0.90;;;13.20;64.90;;;;;;5094463;28;20544;-41
2021/05/25 10:35:59;;;;;;;2.77;0.90;;;12.90;66.10;;;;;;5093950;28;20426;-42
2021/05/25 10:38:43;;;;;;;2.27;1.17;;;12.50;67.10;;;;;;5093928;28;20426;-39
2021/05/25 10:41:33;;;;;;;4.63;1.03;;;12.40;69.60;;;;;;5096332;28;20491;-42
2021/05/25 10:43:59;;;;;;;2.90;1.37;;;11.90;70.60;;;;;;5094800;28;20459;-40
2021/05/25 10:46:26;;;;;;;2.20;0.97;;;12.30;71.10;;;;;;5095285;28;20456;-40
2021/05/25 10:51:51;;;;;;;3.47;1.20;;;12.30;72.30;;;;;;5095557;28;20658;-40
2021/05/25 10:54:36;;;;;;;1.80;1.20;;;13.10;72.50;;;;;;5096024;28;20527;-41
2021/05/25 10:57:04;;;;;;;2.70;0.93;;;13.50;70.60;;;;;;5094858;28;20413;-40
2021/05/25 11:00:07;;;;;;;3.77;1.07;;;13.20;70.30;;;;;;5094986;28;20434;-41
2021/05/25 11:02:57;;;;;;;2.93;0.80;;;13.10;71.00;;;;;;5096569;28;20464;-42
2021/05/25 11:05:35;;;;;;;3.07;0.90;;;13.20;68.50;;;;;;5095134;28;20510;-42
2021/05/25 11:08:09;;;;;;;1.60;1.00;;;12.70;67.10;;;;;;5094343;28;20426;-40
2021/05/25 11:10:42;;;;;;;2.50;1.10;;;12.30;68.40;;;;;;5094017;28;20478;-40
2021/05/25 11:13:25;;;;;;;4.07;1.00;;;12.10;70.00;;;;;;5094343;28;20567;-42
2021/05/25 11:16:26;;;;;;;2.30;0.93;;;11.90;71.00;;;;;;5094854;28;20435;-42
2021/05/25 11:19:06;;;;;;;3.37;1.23;;;11.90;72.90;;;;;;5096306;28;20669;-40
2021/05/25 11:24:45;;;;;;;2.53;1.17;;;11.80;74.30;;;;;;5096259;28;20433;-40
2021/05/25 11:27:13;;;;;;;4.70;0.93;;;11.90;76.00;;;;;;5093409;28;20848;-43
2021/05/25 11:29:52;;;;;;;2.33;1.07;;;12.10;77.60;;;;;;5093523;28;20433;-41
2021/05/25 11:32:25;;;;;;;5.17;0.97;;;12.60;78.90;;;;;;5094410;28;20411;-42
2021/05/25 11:35:04;;;;;;;3.10;1.27;;;12.70;75.00;;;;;;5093451;28;20521;-42
2021/05/25 11:37:35;;;;;;;1.87;0.90;;;13.10;74.70;;;;;;5095353;28;20689;-41
2021/05/25 11:40:03;;;;;;;4.17;1.20;;;12.80;74.00;;;;;;5095371;28;20429;-43
2021/05/25 11:42:31;;;;;;;2.60;0.90;;;12.30;78.70;;;;;;5095278;28;20792;-43
2021/05/25 11:44:57;;;;;;;1.87;0.90;;;12.80;81.40;;;;;;5095517;28;20429;-41
2021/05/25 11:47:24;;;;;;;2.83;1.03;;;13.30;80.80;;;;;;5096134;28;20413;-42
2021/05/25 11:49:50;;;;;;;2.50;1.37;;;13.50;77.00;;;;;;5095549;28;20426;-43
2021/05/25 11:52:38;;;;;;;3.20;1.27;;;14.40;76.30;;;;;;5096021;28;20409;-42
2021/05/25 11:55:09;;;;;;;4.40;1.23;;;14.90;69.90;;;;;;5094833;28;20457;-42
2021/05/25 11:57:43;;;;;;;4.40;1.20;;;13.50;70.30;;;;;;5095364;28;20514;-42
2021/05/25 12:00:23;;;;;;;1.87;1.27;;;13.70;70.70;;;;;;5096184;28;20509;-40
2021/05/25 12:02:54;;;;;;;3.37;1.50;;;14.30;70.40;;;;;;5094109;28;20426;-41
2021/05/25 12:05:22;;;;;;;4.63;1.30;;;14.80;67.30;;;;;;5095036;28;20441;-43
2021/05/25 12:07:50;;;;;;;4.00;1.83;;;14.90;68.20;;;;;;5094514;28;20468;-43
2021/05/25 12:10:18;;;;;;;3.20;1.00;;;15.30;66.10;;;;;;5093659;28;20847;-42
2021/05/25 12:12:45;;;;;;;2.40;0.70;;;16.10;62.40;;;;;;5093018;28;20481;-41
2021/05/25 12:15:19;;;;;;;2.53;1.10;;;16.00;61.20;;;;;;5096861;28;20437;-50
2021/05/25 12:17:48;;;;;;;5.20;1.77;;;15.60;60.80;;;;;;5099000;28;20433;-43
2021/05/25 12:20:21;;;;;;;4.63;1.00;;;14.90;60.00;;;;;;5097898;28;20426;-43
2021/05/25 12:22:52;;;;;;;4.13;1.40;;;14.60;60.30;;;;;;5097085;28;20444;-44
2021/05/25 12:25:26;;;;;;;2.27;0.83;;;14.10;61.90;;;;;;5097262;28;20815;-40
2021/05/25 12:27:57;;;;;;;2.33;1.30;;;13.20;60.30;;;;;;5098575;28;20409;-41
2021/05/25 12:30:23;;;;;;;2.70;1.27;;;12.90;62.60;;;;;;5098206;28;20685;-41
2021/05/25 12:32:49;;;;;;;6.33;1.00;;;12.60;64.60;;;;;;5098187;28;20462;-41
2021/05/25 12:35:21;;;;;;;1.97;1.10;;;12.30;66.70;;;;;;5079591;28;20469;-42
2021/05/25 12:38:01;;;;;;;7.73;1.37;;;12.20;67.50;;;;;;5098189;28;20413;-43
2021/05/25 12:40:27;;;;;;;3.33;0.97;;;12.40;73.50;;;;;;5098155;28;20430;-43
2021/05/25 12:42:53;;;;;;;3.27;0.97;;;13.40;74.30;;;;;;5098426;28;20805;-40
2021/05/25 12:45:19;;;;;;;3.33;1.03;;;14.90;72.30;;;;;;5097525;28;20422;-41
2021/05/25 12:47:48;;;;;;;2.53;1.17;;;15.20;65.30;;;;;;5097181;28;20179;-40
2021/05/25 12:50:14;;;;;;;1.70;0.97;;;15.40;60.80;;;;;;5096779;28;20426;-40
2021/05/25 12:52:40;;;;;;;2.50;0.73;;;15.40;58.10;;;;;;5096775;28;20801;-42
2021/05/25 12:55:13;;;;;;;6.03;1.00;;;15.40;57.00;;;;;;5095613;28;20765;-41
2021/05/25 12:57:49;;;;;;;2.63;0.50;;;15.80;55.50;;;;;;5095897;28;20427;-42
2021/05/25 13:00:27;;;;;;;2.70;0.90;;;15.80;54.80;;;;;;5095212;28;20434;-42
2021/05/25 13:02:53;;;;;;;1.73;1.00;;;16.00;54.60;;;;;;5095222;28;20479;-42
2021/05/25 13:05:29;;;;;;;1.97;0.77;;;16.10;54.30;;;;;;5096321;28;20450;-42
2021/05/25 13:08:07;;;;;;;2.80;0.80;;;15.50;55.20;;;;;;5095406;28;20434;-42
2021/05/25 13:10:46;;;;;;;1.70;0.90;;;15.50;56.30;;;;;;5096520;28;20438;-40
2021/05/25 13:13:17;;;;;;;3.57;1.30;;;16.00;55.50;;;;;;5096649;28;20485;-43